Time;durP1;ratioP1;P1;durP2;ratioP2;P2;SDS_P1;SDS_P2;PMS_P1;PMS_P2;Temp;Humidity;BMP_temperature;BMP_pressure;BME280_temperature;BME280_humidity;BME280_pressure;Samples;Min_cycle;Max_cycle;Signal;HPM_P1;HPM_P2
2023/05/03 00:03:27;;;;;;;4.03;3.72;;;;;;;4.80;90.69;102957.97;10334467;28;20451;-78
2023/05/03 00:08:28;;;;;;;6.93;4.45;;;;;;;4.81;91.67;102957.00;10319361;28;20038;-75
2023/05/03 00:13:28;;;;;;;5.88;5.28;;;;;;;4.73;90.14;102962.06;10318396;28;20042;-75
2023/05/03 00:18:29;;;;;;;7.30;5.47;;;;;;;4.66;90.76;102966.16;10333435;28;20137;-75
2023/05/03 00:23:30;;;;;;;4.93;4.50;;;;;;;4.66;92.01;102956.28;10317012;28;20124;-76
2023/05/03 00:28:30;;;;;;;6.68;3.75;;;;;;;4.66;93.22;102950.91;10317255;28;20034;-75
2023/05/03 00:33:30;;;;;;;6.07;5.47;;;;;;;4.72;95.79;102946.91;10335197;28;20437;-75
2023/05/03 00:38:31;;;;;;;7.22;4.90;;;;;;;4.76;96.27;102950.25;10335315;28;20402;-75
2023/05/03 00:43:31;;;;;;;8.13;5.03;;;;;;;4.64;94.69;102943.91;10317684;28;20030;-77
2023/05/03 00:48:33;;;;;;;9.07;4.57;;;;;;;4.58;96.34;102955.94;10300891;28;20125;-75
2023/05/03 00:53:33;;;;;;;12.60;5.18;;;;;;;4.54;94.80;102950.91;10322642;28;20054;-75
2023/05/03 00:58:35;;;;;;;5.07;4.60;;;;;;;4.54;96.27;102958.97;10336984;28;20058;-76
2023/05/03 01:03:36;;;;;;;8.13;5.25;;;;;;;4.54;95.55;102969.69;10300441;28;20066;-75
2023/05/03 01:08:38;;;;;;;16.98;6.00;;;;;;;4.48;95.35;102965.59;10317405;28;20042;-75
2023/05/03 01:13:38;;;;;;;15.07;4.82;;;;;;;4.48;96.70;102959.38;10322395;28;20038;-76
2023/05/03 01:18:40;;;;;;;7.85;5.22;;;;;;;4.48;96.26;102962.91;10342774;28;20118;-76
2023/05/03 01:23:55;;;;;;;9.60;6.03;;;;;;;4.46;97.37;102955.94;10345521;28;20121;-76
2023/05/03 01:28:56;;;;;;;7.95;6.20;;;;;;;4.49;97.80;102948.53;10341307;28;20054;-76
2023/05/03 01:34:24;;;;;;;5.53;4.95;;;;;;;4.40;97.11;102939.31;10341377;28;20120;-76
2023/05/03 01:39:45;;;;;;;9.95;6.97;;;;;;;4.44;100.00;102934.59;10341961;28;20069;-76
2023/05/03 01:44:45;;;;;;;7.68;6.70;;;;;;;4.40;99.81;102920.56;10309124;28;20034;-77
2023/05/03 01:49:46;;;;;;;10.80;6.65;;;;;;;4.36;99.77;102912.81;10309205;28;20505;-77
2023/05/03 01:54:46;;;;;;;10.18;6.97;;;;;;;4.37;100.00;102895.75;10324551;28;20113;-77
2023/05/03 01:59:46;;;;;;;9.23;7.07;;;;;;;4.36;100.00;102883.31;10334310;28;20037;-75
2023/05/03 02:04:47;;;;;;;7.20;6.60;;;;;;;4.34;100.00;102878.06;10323482;28;20050;-75
2023/05/03 02:09:47;;;;;;;9.90;6.95;;;;;;;4.27;100.00;102878.59;10340192;28;20061;-75
2023/05/03 02:14:48;;;;;;;8.90;7.28;;;;;;;4.21;100.00;102885.22;10339825;28;20515;-74
2023/05/03 02:19:48;;;;;;;10.45;6.53;;;;;;;4.21;100.00;102901.31;10339302;28;20031;-75
2023/05/03 02:24:48;;;;;;;7.18;6.45;;;;;;;4.16;100.00;102892.75;10313113;28;20049;-75
2023/05/03 02:29:49;;;;;;;7.82;6.20;;;;;;;4.12;100.00;102913.56;10338937;28;20544;-76
2023/05/03 02:34:49;;;;;;;7.43;6.72;;;;;;;3.96;100.00;102919.13;10321188;28;20128;-75
2023/05/03 02:39:50;;;;;;;6.80;5.82;;;;;;;3.95;100.00;102917.38;10321117;28;20045;-75
2023/05/03 02:44:50;;;;;;;7.10;6.13;;;;;;;3.97;100.00;102925.31;10339388;28;20424;-75
2023/05/03 02:49:51;;;;;;;6.03;5.45;;;;;;;4.06;100.00;102919.34;10338470;28;20425;-76
2023/05/03 02:54:51;;;;;;;10.90;5.07;;;;;;;4.09;100.00;102923.63;10338685;28;20074;-77
2023/05/03 02:59:52;;;;;;;6.05;5.53;;;;;;;4.20;100.00;102929.09;10338248;28;20037;-76
2023/05/03 03:04:52;;;;;;;6.05;5.45;;;;;;;4.25;100.00;102934.16;10337908;28;20050;-76
2023/05/03 03:09:52;;;;;;;6.30;5.80;;;;;;;4.27;100.00;102937.59;10338039;28;20045;-76
2023/05/03 03:14:53;;;;;;;8.73;5.13;;;;;;;4.24;100.00;102943.16;10337362;28;20532;-76
2023/05/03 03:19:53;;;;;;;5.72;5.20;;;;;;;4.22;100.00;102954.00;10304344;28;20034;-75
2023/05/03 03:24:54;;;;;;;6.70;4.38;;;;;;;4.22;100.00;102935.22;10336134;28;20170;-75
2023/05/03 03:29:54;;;;;;;6.10;4.20;;;;;;;4.18;100.00;102934.59;10338603;28;20031;-75
2023/05/03 03:34:54;;;;;;;7.22;4.75;;;;;;;4.18;100.00;102931.06;10341316;28;20061;-75
2023/05/03 03:39:56;;;;;;;5.60;4.95;;;;;;;4.23;100.00;102947.66;10336140;28;20062;-75
2023/05/03 03:44:56;;;;;;;5.32;4.35;;;;;;;4.20;100.00;102953.25;10345925;28;20042;-76
2023/05/03 03:49:58;;;;;;;9.75;4.38;;;;;;;4.06;100.00;102959.56;10330959;28;20034;-76
2023/05/03 03:54:59;;;;;;;5.10;3.25;;;;;;;3.86;100.00;102966.28;10328457;28;20038;-76
2023/05/03 04:00:00;;;;;;;6.10;4.72;;;;;;;3.76;100.00;102975.88;10338173;28;20049;-76
2023/05/03 04:05:00;;;;;;;4.93;3.42;;;;;;;3.70;100.00;102977.16;10335544;28;20062;-76
2023/05/03 04:10:01;;;;;;;4.30;3.75;;;;;;;3.78;100.00;102976.63;10334973;28;20034;-76
2023/05/03 04:15:01;;;;;;;4.95;4.43;;;;;;;3.88;100.00;102968.84;10336399;28;20092;-76
2023/05/03 04:20:09;;;;;;;6.95;4.80;;;;;;;4.06;100.00;102964.06;10335157;28;20450;-75
2023/05/03 04:25:12;;;;;;;12.82;4.80;;;;;;;4.14;100.00;102953.66;10336521;28;20357;-75
2023/05/03 04:30:13;;;;;;;5.03;4.55;;;;;;;4.18;100.00;102955.19;10333333;28;20038;-74
2023/05/03 04:35:14;;;;;;;5.03;4.53;;;;;;;4.26;100.00;102942.09;10334429;28;20466;-76
2023/05/03 04:40:16;;;;;;;6.68;3.90;;;;;;;4.35;100.00;102951.34;10301500;28;20035;-76
2023/05/03 04:45:17;;;;;;;8.20;4.13;;;;;;;4.43;100.00;102947.16;10318348;28;20144;-77
2023/05/03 04:50:18;;;;;;;6.40;4.47;;;;;;;4.51;100.00;102951.13;10318568;28;20050;-76
2023/05/03 04:55:18;;;;;;;17.13;4.90;;;;;;;4.55;100.00;102953.47;10316606;28;20192;-73
2023/05/03 05:00:20;;;;;;;4.57;3.63;;;;;;;4.55;100.00;102953.47;10283077;28;20136;-75
2023/05/03 05:05:20;;;;;;;3.92;3.63;;;;;;;4.62;100.00;102961.94;10318325;28;20113;-75
2023/05/03 05:10:21;;;;;;;6.40;4.30;;;;;;;4.78;100.00;102969.78;10316765;28;20035;-76
2023/05/03 05:15:21;;;;;;;5.50;4.97;;;;;;;4.94;100.00;102969.53;10317290;28;20045;-76
2023/05/03 05:20:21;;;;;;;3.78;3.53;;;;;;;5.22;100.00;102976.47;10332886;28;20026;-77
2023/05/03 05:25:22;;;;;;;4.15;3.85;;;;;;;6.57;100.00;102980.59;10337266;28;20034;-76
2023/05/03 05:30:23;;;;;;;5.72;3.95;;;;;;;7.53;100.00;102968.41;10336694;28;20042;-77
2023/05/03 05:35:23;;;;;;;9.90;3.50;;;;;;;8.38;100.00;102985.50;10316342;28;20033;-77
2023/05/03 05:40:25;;;;;;;3.60;3.30;;;;;;;8.95;100.00;102983.25;10315928;28;20034;-75
2023/05/03 05:45:25;;;;;;;8.10;2.80;;;;;;;9.18;100.00;102986.59;10332392;28;20044;-77
2023/05/03 05:50:26;;;;;;;3.53;3.13;;;;;;;9.65;100.00;102980.59;10315430;28;20481;-78
2023/05/03 05:55:26;;;;;;;4.00;2.08;;;;;;;9.89;98.36;102988.28;10331381;28;20038;-77
2023/05/03 06:00:27;;;;;;;6.22;2.97;;;;;;;9.88;92.50;102976.63;10316326;28;20100;-75
2023/05/03 06:05:27;;;;;;;2.53;2.30;;;;;;;10.01;86.01;102970.94;10307241;28;20062;-76
2023/05/03 06:10:29;;;;;;;5.63;2.55;;;;;;;10.44;82.43;102977.75;10326642;28;20050;-75
2023/05/03 06:15:30;;;;;;;4.47;2.65;;;;;;;10.91;77.17;102977.75;10331877;28;20382;-76
2023/05/03 06:20:30;;;;;;;3.72;3.13;;;;;;;11.24;72.86;102981.75;10343893;28;20030;-76
2023/05/03 06:25:31;;;;;;;8.07;2.55;;;;;;;11.48;69.90;102974.88;10340508;28;20058;-76
2023/05/03 06:30:31;;;;;;;4.35;2.55;;;;;;;11.83;66.04;102964.03;10340578;28;20439;-76
2023/05/03 06:35:32;;;;;;;4.00;1.70;;;;;;;11.60;63.04;102952.81;10338538;28;20100;-77
2023/05/03 06:40:32;;;;;;;1.70;1.60;;;;;;;11.91;62.75;102963.31;10320378;28;20092;-76
2023/05/03 06:45:33;;;;;;;1.98;1.88;;;;;;;11.89;59.04;102948.19;10337884;28;20125;-77
2023/05/03 06:50:33;;;;;;;2.35;2.20;;;;;;;11.83;57.95;102958.63;10319715;28;20490;-76
2023/05/03 06:55:34;;;;;;;2.42;2.13;;;;;;;12.22;58.08;102952.00;10319978;28;20051;-76
2023/05/03 07:00:34;;;;;;;1.58;1.48;;;;;;;12.49;55.61;102942.88;10336044;28;20034;-77
2023/05/03 07:05:35;;;;;;;6.10;1.92;;;;;;;12.54;54.92;102935.97;10338297;28;20050;-76
2023/05/03 07:10:35;;;;;;;2.78;1.25;;;;;;;12.63;54.30;102933.28;10337991;28;20085;-76
2023/05/03 07:15:36;;;;;;;6.82;2.10;;;;;;;13.09;53.87;102934.69;10337071;28;20049;-75
2023/05/03 07:20:36;;;;;;;2.45;1.42;;;;;;;12.77;51.85;102914.50;10318871;28;20034;-75
2023/05/03 07:25:38;;;;;;;4.45;2.30;;;;;;;12.97;51.38;102922.41;10319294;28;20473;-77
2023/05/03 07:30:38;;;;;;;2.13;1.88;;;;;;;12.87;51.63;102916.25;10334872;28;20084;-76
2023/05/03 07:35:39;;;;;;;6.50;1.75;;;;;;;13.23;50.95;102901.38;10318871;28;20113;-76
2023/05/03 07:40:40;;;;;;;2.17;1.17;;;;;;;13.75;49.43;102897.59;10302716;28;20034;-76
2023/05/03 07:45:40;;;;;;;11.15;2.67;;;;;;;13.74;49.20;102909.50;10318750;28;20129;-76
2023/05/03 07:50:42;;;;;;;1.58;1.48;;;;;;;13.51;48.42;102920.19;10317352;28;20125;-75
2023/05/03 07:55:43;;;;;;;2.00;1.90;;;;;;;14.00;49.66;102917.50;10333960;28;20026;-75
2023/05/03 08:00:43;;;;;;;4.88;2.30;;;;;;;14.53;49.28;102891.56;10334634;28;20474;-76
2023/05/03 08:05:45;;;;;;;3.03;1.70;;;;;;;14.68;48.10;102904.44;10335511;28;20062;-76
2023/05/03 08:10:45;;;;;;;14.77;2.63;;;;;;;15.18;48.15;102901.31;10335353;28;20077;-76
2023/05/03 08:15:45;;;;;;;3.13;2.15;;;;;;;15.33;46.02;102891.34;10317457;28;20042;-75
2023/05/03 08:20:46;;;;;;;3.53;2.03;;;;;;;14.79;46.43;102910.38;10334984;28;20034;-75
2023/05/03 08:25:47;;;;;;;6.70;1.77;;;;;;;14.76;45.92;102908.00;10332968;28;20042;-75
2023/05/03 08:30:48;;;;;;;1.67;1.58;;;;;;;14.82;46.92;102906.47;10317013;28;20129;-75
2023/05/03 08:35:48;;;;;;;4.00;1.77;;;;;;;15.07;46.14;102921.69;10335925;28;20466;-75
2023/05/03 08:40:50;;;;;;;2.35;1.83;;;;;;;15.18;46.70;102904.06;10328198;28;20438;-74
2023/05/03 08:45:50;;;;;;;3.85;1.73;;;;;;;15.48;48.46;102909.69;10348732;28;20114;-77
2023/05/03 08:50:52;;;;;;;7.30;2.42;;;;;;;16.19;46.25;102910.34;10322688;28;20050;-75
2023/05/03 08:55:53;;;;;;;2.08;1.98;;;;;;;17.24;45.75;102909.28;10333487;28;20045;-75
2023/05/03 09:00:53;;;;;;;4.00;2.10;;;;;;;17.73;44.93;102903.06;10333452;28;20525;-76
2023/05/03 09:05:53;;;;;;;8.63;1.95;;;;;;;17.56;43.17;102907.94;10316231;28;20058;-76
2023/05/03 09:10:54;;;;;;;2.15;2.00;;;;;;;15.17;44.44;102916.00;10333195;28;20118;-77
2023/05/03 09:15:55;;;;;;;9.48;1.90;;;;;;;16.10;45.54;102917.75;10316260;28;20521;-76
2023/05/03 09:20:56;;;;;;;2.45;2.25;;;;;;;16.96;42.50;102899.88;10315722;28;20129;-76
2023/05/03 09:25:56;;;;;;;2.38;2.22;;;;;;;17.20;42.59;102908.84;10316696;28;20125;-76
2023/05/03 09:31:06;;;;;;;4.72;2.03;;;;;;;17.56;42.56;102902.47;10316115;28;20382;-76
2023/05/03 09:36:07;;;;;;;5.05;2.60;;;;;;;17.49;41.06;102901.56;10333253;28;20041;-77
2023/05/03 09:41:07;;;;;;;2.72;2.10;;;;;;;17.54;40.95;102902.66;10341282;28;20106;-77
2023/05/03 09:46:09;;;;;;;3.05;2.50;;;;;;;17.50;41.07;102903.25;10323567;28;20479;-75
2023/05/03 09:51:10;;;;;;;3.45;2.85;;;;;;;16.62;43.52;102902.34;10340121;28;20039;-76
2023/05/03 09:56:14;;;;;;;3.15;2.03;;;;;;;17.20;41.17;102904.19;10323535;28;20044;-76
2023/05/03 10:01:15;;;;;;;7.70;2.92;;;;;;;16.92;41.87;102909.53;10323682;28;20439;-76
2023/05/03 10:06:27;;;;;;;2.75;2.35;;;;;;;17.23;43.99;102905.72;10321885;28;20386;-77
2023/05/03 10:11:27;;;;;;;3.42;2.38;;;;;;;18.24;42.38;102895.50;10339087;28;20070;-76
2023/05/03 10:16:34;;;;;;;4.97;2.50;;;;;;;18.11;39.99;102888.03;10322372;28;20066;-75
2023/05/03 10:21:54;;;;;;;2.45;2.25;;;;;;;17.59;40.03;102893.88;10321419;28;20035;-75
2023/05/03 10:26:54;;;;;;;5.00;2.80;;;;;;;17.75;39.83;102896.34;10307573;28;20486;-75
2023/05/03 10:31:55;;;;;;;4.18;3.17;;;;;;;17.95;41.97;102879.25;10339376;28;20037;-76
2023/05/03 10:36:55;;;;;;;5.55;3.20;;;;;;;18.29;39.22;102879.28;10320315;28;20065;-75
2023/05/03 10:42:08;;;;;;;4.18;2.78;;;;;;;18.09;38.73;102867.31;10304766;28;20477;-77
2023/05/03 10:47:12;;;;;;;11.63;2.67;;;;;;;18.15;40.05;102874.75;10321554;28;20035;-77
2023/05/03 10:52:34;;;;;;;5.05;3.33;;;;;;;18.11;39.61;102874.31;10321137;28;20409;-75
2023/05/03 10:57:34;;;;;;;4.35;2.92;;;;;;;18.32;42.14;102870.66;10340200;28;20074;-75
2023/05/03 11:02:37;;;;;;;3.40;3.20;;;;;;;18.50;40.85;102861.06;10338603;28;20370;-78
2023/05/03 11:07:37;;;;;;;4.68;3.80;;;;;;;18.77;38.80;102860.19;10328150;28;20117;-75
2023/05/03 11:12:38;;;;;;;4.45;3.13;;;;;;;18.74;40.56;102855.09;10337141;28;20034;-76
2023/05/03 11:17:38;;;;;;;9.43;3.67;;;;;;;19.02;39.13;102848.66;10342768;28;20117;-76
2023/05/03 11:22:38;;;;;;;2.97;2.78;;;;;;;18.76;39.96;102832.91;10302848;28;20029;-76
2023/05/03 11:27:42;;;;;;;3.17;2.88;;;;;;;19.25;40.55;102821.66;10319610;28;20066;-75
2023/05/03 11:32:42;;;;;;;7.70;2.90;;;;;;;19.16;40.63;102828.41;10335983;28;20041;-76
2023/05/03 11:37:43;;;;;;;5.22;3.63;;;;;;;19.45;39.63;102821.69;10336482;28;20489;-77
2023/05/03 11:42:59;;;;;;;3.30;3.00;;;;;;;19.48;37.86;102821.25;10302306;28;20042;-76
2023/05/03 11:48:00;;;;;;;6.10;3.42;;;;;;;18.95;38.65;102814.81;10319487;28;20109;-77
2023/05/03 11:53:00;;;;;;;3.13;2.92;;;;;;;18.87;37.45;102798.56;10335664;28;20041;-76
2023/05/03 11:58:00;;;;;;;4.18;2.58;;;;;;;18.85;37.26;102796.00;10335142;28;20038;-76
2023/05/03 12:03:01;;;;;;;2.95;2.70;;;;;;;18.80;37.30;102793.03;10335484;28;20069;-76
2023/05/03 12:08:01;;;;;;;5.20;3.72;;;;;;;18.50;37.69;102776.00;10335792;28;20054;-76
2023/05/03 12:13:02;;;;;;;5.20;3.30;;;;;;;18.96;39.99;102767.97;10318448;28;20138;-76
2023/05/03 12:18:07;;;;;;;3.45;3.25;;;;;;;19.50;38.65;102757.88;10320219;28;20370;-76
2023/05/03 12:23:08;;;;;;;6.43;3.90;;;;;;;19.96;40.00;102754.22;10335692;28;20471;-75
2023/05/03 12:28:08;;;;;;;4.78;3.38;;;;;;;20.14;37.16;102742.56;10319225;28;20034;-75
2023/05/03 12:33:09;;;;;;;6.68;4.53;;;;;;;19.70;37.14;102744.97;10336149;28;20494;-75
2023/05/03 12:38:11;;;;;;;6.22;3.95;;;;;;;19.67;38.38;102736.31;10335333;28;20042;-76
2023/05/03 12:43:11;;;;;;;7.78;3.83;;;;;;;19.82;36.60;102733.34;10335175;28;20034;-75
2023/05/03 12:48:12;;;;;;;7.72;3.45;;;;;;;19.07;37.59;102717.06;10335591;28;20066;-76
2023/05/03 12:53:12;;;;;;;8.13;4.07;;;;;;;19.43;40.64;102716.66;10318569;28;20065;-76
2023/05/03 12:58:12;;;;;;;3.83;3.35;;;;;;;20.31;38.71;102709.91;10317604;28;20038;-77
2023/05/03 13:03:13;;;;;;;3.90;3.53;;;;;;;20.33;41.67;102700.38;10334797;28;20038;-76
2023/05/03 13:08:14;;;;;;;3.63;3.28;;;;;;;20.85;37.99;102705.81;10334112;28;20086;-76
2023/05/03 13:13:15;;;;;;;4.60;3.00;;;;;;;20.00;39.86;102675.75;10320738;28;20445;-77
2023/05/03 13:18:15;;;;;;;2.88;2.65;;;;;;;20.04;38.90;102674.25;10325784;28;20053;-77
2023/05/03 13:23:16;;;;;;;4.35;2.53;;;;;;;19.64;38.81;102668.88;10343638;28;20038;-75
2023/05/03 13:28:22;;;;;;;3.53;3.22;;;;;;;19.56;37.43;102673.72;10324610;28;20109;-75
2023/05/03 13:33:22;;;;;;;3.28;2.97;;;;;;;19.45;40.80;102654.06;10317711;28;20165;-78
2023/05/03 13:38:23;;;;;;;3.13;2.85;;;;;;;19.19;36.97;102646.72;10352464;28;20062;-76
2023/05/03 13:43:23;;;;;;;3.38;3.08;;;;;;;18.79;39.82;102644.00;10353849;28;20030;-75
2023/05/03 13:48:24;;;;;;;3.75;3.45;;;;;;;19.07;38.52;102634.69;10343685;28;20061;-77
2023/05/03 13:53:25;;;;;;;6.40;3.63;;;;;;;18.66;39.82;102635.69;10341862;28;20074;-78
2023/05/03 13:58:26;;;;;;;10.88;3.53;;;;;;;18.92;39.87;102631.31;10309359;28;20064;-76
2023/05/03 14:03:26;;;;;;;3.83;3.15;;;;;;;19.09;40.57;102607.03;10324576;28;20042;-78
2023/05/03 14:08:26;;;;;;;5.68;3.58;;;;;;;19.43;38.44;102612.25;10324467;28;20077;-76
2023/05/03 14:13:27;;;;;;;3.40;3.10;;;;;;;18.42;39.12;102609.72;10341842;28;20034;-75
2023/05/03 14:18:28;;;;;;;4.75;3.67;;;;;;;18.49;42.06;102605.06;10323085;28;20038;-76
2023/05/03 14:23:29;;;;;;;4.35;4.05;;;;;;;18.45;40.61;102586.50;10322808;28;20033;-77
2023/05/03 14:28:30;;;;;;;4.03;3.60;;;;;;;18.36;40.35;102586.69;10341969;28;20057;-75
2023/05/03 14:33:31;;;;;;;3.38;3.17;;;;;;;18.09;41.81;102573.97;10324361;28;20037;-76
2023/05/03 14:38:32;;;;;;;3.78;3.33;;;;;;;17.61;42.28;102571.22;10308273;28;20118;-77
2023/05/03 14:43:32;;;;;;;4.55;4.15;;;;;;;17.63;43.01;102560.91;10324298;28;20030;-76
2023/05/03 14:48:33;;;;;;;4.88;4.20;;;;;;;17.49;43.39;102567.41;10326081;28;20104;-75
2023/05/03 14:53:34;;;;;;;4.30;3.90;;;;;;;17.50;43.82;102563.59;10344398;28;20053;-76
2023/05/03 14:58:34;;;;;;;3.95;3.58;;;;;;;17.46;43.55;102552.22;10326318;28;20042;-76
2023/05/03 15:03:35;;;;;;;5.47;3.88;;;;;;;17.34;44.19;102551.94;10330686;28;20057;-78
2023/05/03 15:08:38;;;;;;;9.98;4.97;;;;;;;17.12;44.60;102550.31;10315398;28;20137;-77
2023/05/03 15:13:38;;;;;;;4.78;4.38;;;;;;;16.70;44.30;102542.00;10317244;28;20035;-75
2023/05/03 15:18:38;;;;;;;4.72;3.10;;;;;;;16.57;45.06;102547.34;10315693;28;20031;-78
2023/05/03 15:23:40;;;;;;;3.83;3.47;;;;;;;16.45;44.87;102544.31;10304373;28;20046;-77
2023/05/03 15:28:41;;;;;;;10.27;4.38;;;;;;;16.38;45.41;102529.72;10302242;28;20039;-77
2023/05/03 15:33:42;;;;;;;3.08;2.88;;;;;;;16.71;46.26;102535.47;10305527;28;20075;-76
2023/05/03 15:38:42;;;;;;;8.18;3.47;;;;;;;16.47;45.32;102522.25;10306109;28;20035;-77
2023/05/03 15:43:46;;;;;;;5.68;4.00;;;;;;;16.41;46.36;102518.41;10306230;28;20038;-76
2023/05/03 15:48:46;;;;;;;7.43;4.20;;;;;;;16.44;46.56;102517.16;10308685;28;20102;-75
2023/05/03 15:53:48;;;;;;;10.60;4.28;;;;;;;16.23;47.17;102523.47;10305719;28;20046;-75
2023/05/03 15:58:48;;;;;;;3.88;3.47;;;;;;;15.72;47.17;102509.91;10305630;28;20035;-77
2023/05/03 16:03:49;;;;;;;5.65;3.03;;;;;;;15.24;48.43;102507.59;10325785;28;20031;-77
2023/05/03 16:08:49;;;;;;;4.65;3.22;;;;;;;15.00;49.72;102505.19;10327984;28;20058;-76
2023/05/03 16:13:50;;;;;;;18.30;4.03;;;;;;;14.54;50.45;102497.94;10301339;28;20109;-77
2023/05/03 16:18:50;;;;;;;8.27;4.95;;;;;;;14.32;51.56;102499.63;10304090;28;20051;-77
2023/05/03 16:23:51;;;;;;;4.93;3.53;;;;;;;14.16;52.46;102497.91;10294051;28;20035;-77
2023/05/03 16:28:51;;;;;;;4.95;4.45;;;;;;;14.09;53.10;102507.00;10294240;28;20031;-77
2023/05/03 16:33:52;;;;;;;3.90;3.30;;;;;;;13.88;53.84;102500.34;10294546;28;20050;-75
2023/05/03 16:38:52;;;;;;;4.38;3.70;;;;;;;13.84;54.36;102490.81;10294436;28;20374;-77
2023/05/03 16:43:52;;;;;;;5.32;4.15;;;;;;;13.92;53.18;102496.22;10294698;28;20062;-77
2023/05/03 16:48:53;;;;;;;8.60;4.40;;;;;;;13.91;54.74;102496.38;10309644;28;20070;-76
2023/05/03 16:53:54;;;;;;;4.85;3.65;;;;;;;13.88;55.23;102491.28;10309674;28;20385;-77
2023/05/03 16:58:55;;;;;;;3.65;3.35;;;;;;;13.82;54.79;102482.00;10293202;28;20035;-76
2023/05/03 17:03:55;;;;;;;5.05;4.55;;;;;;;13.84;54.80;102476.34;10295024;28;20057;-75
2023/05/03 17:08:56;;;;;;;5.63;3.63;;;;;;;13.91;55.07;102477.31;10294171;28;20066;-77
2023/05/03 17:13:57;;;;;;;5.50;3.45;;;;;;;14.03;55.15;102470.41;10292157;28;20062;-77
2023/05/03 17:18:57;;;;;;;4.22;3.47;;;;;;;14.02;56.14;102478.78;10294380;28;20034;-76
2023/05/03 17:23:58;;;;;;;3.92;3.60;;;;;;;13.89;55.90;102482.97;10297024;28;20046;-77
2023/05/03 17:28:58;;;;;;;4.05;3.60;;;;;;;13.82;56.87;102476.53;10295076;28;20039;-75
2023/05/03 17:33:59;;;;;;;8.43;3.65;;;;;;;13.84;56.52;102462.72;10292628;28;20039;-76
2023/05/03 17:38:59;;;;;;;3.58;3.28;;;;;;;13.63;58.93;102463.41;10293383;28;20432;-77
2023/05/03 17:44:00;;;;;;;9.90;4.45;;;;;;;13.60;58.86;102464.59;10294318;28;20035;-75
2023/05/03 17:49:01;;;;;;;4.93;3.90;;;;;;;13.59;59.08;102468.38;10292420;28;20042;-77
2023/05/03 17:54:01;;;;;;;7.03;3.72;;;;;;;13.44;60.08;102470.97;10291299;28;20035;-76
2023/05/03 17:59:02;;;;;;;8.02;4.80;;;;;;;13.36;61.00;102472.88;10295390;28;20054;-75
2023/05/03 18:04:03;;;;;;;6.10;4.03;;;;;;;13.14;62.13;102482.63;10300038;28;20070;-77
2023/05/03 18:09:05;;;;;;;4.50;4.00;;;;;;;13.12;61.99;102487.44;10334550;28;20145;-75
2023/05/03 18:14:06;;;;;;;7.13;5.30;;;;;;;12.89;65.45;102474.59;10340428;28;20089;-76
2023/05/03 18:19:06;;;;;;;6.22;4.57;;;;;;;12.68;66.00;102479.72;10339164;28;20092;-77
2023/05/03 18:24:07;;;;;;;5.03;4.63;;;;;;;12.55;66.87;102480.25;10342438;28;20450;-76
2023/05/03 18:29:07;;;;;;;8.45;5.10;;;;;;;12.47;66.11;102486.53;10328825;28;20066;-76
2023/05/03 18:34:08;;;;;;;7.93;5.15;;;;;;;12.28;70.70;102484.16;10348838;28;20378;-77
2023/05/03 18:39:08;;;;;;;4.45;4.05;;;;;;;12.18;71.85;102478.06;10322301;28;20030;-77
2023/05/03 18:44:08;;;;;;;7.90;4.53;;;;;;;12.00;73.73;102475.53;10338712;28;20089;-74
2023/05/03 18:49:09;;;;;;;4.90;4.50;;;;;;;11.93;75.29;102485.31;10337463;28;20497;-75
2023/05/03 18:54:09;;;;;;;7.85;5.00;;;;;;;11.88;74.03;102474.16;10340165;28;20035;-75
2023/05/03 18:59:09;;;;;;;5.85;5.35;;;;;;;11.74;76.16;102473.75;10338137;28;20114;-74
2023/05/03 19:04:12;;;;;;;5.82;4.10;;;;;;;11.65;76.38;102461.19;10320629;28;20066;-75
2023/05/03 19:09:12;;;;;;;5.28;4.78;;;;;;;11.54;77.12;102462.31;10339975;28;20145;-75
2023/05/03 19:14:13;;;;;;;6.35;5.30;;;;;;;11.43;78.60;102461.81;10337270;28;20535;-77
2023/05/03 19:19:14;;;;;;;5.97;4.38;;;;;;;11.36;81.59;102458.91;10338071;28;20038;-76
2023/05/03 19:24:14;;;;;;;5.07;4.68;;;;;;;11.25;82.39;102453.75;10321866;28;20089;-75
2023/05/03 19:29:15;;;;;;;6.82;5.07;;;;;;;11.21;79.89;102460.53;10339009;28;20026;-77
2023/05/03 19:34:16;;;;;;;10.40;4.93;;;;;;;11.11;80.23;102460.66;10321691;28;20041;-74
2023/05/03 19:39:16;;;;;;;14.20;5.97;;;;;;;11.03;81.19;102457.91;10342857;28;20049;-75
2023/05/03 19:44:17;;;;;;;6.70;5.75;;;;;;;10.93;83.72;102461.59;10324216;28;20038;-75
2023/05/03 19:49:18;;;;;;;9.18;6.10;;;;;;;10.88;80.92;102465.78;10338326;28;20034;-74
2023/05/03 19:54:21;;;;;;;6.70;6.10;;;;;;;10.74;81.83;102453.69;10335415;28;20402;-75
2023/05/03 19:59:22;;;;;;;7.90;7.10;;;;;;;10.69;85.46;102459.59;10335356;28;20033;-75
2023/05/03 20:04:22;;;;;;;5.40;4.90;;;;;;;10.63;85.30;102462.94;10335827;28;20355;-76
2023/05/03 20:09:23;;;;;;;6.65;5.82;;;;;;;10.57;86.13;102462.75;10334286;28;20062;-73
2023/05/03 20:14:26;;;;;;;13.07;6.18;;;;;;;10.46;86.89;102462.00;10335197;28;20125;-75
2023/05/03 20:19:26;;;;;;;7.43;6.10;;;;;;;10.41;87.36;102455.34;10335666;28;20069;-75
2023/05/03 20:24:27;;;;;;;7.22;5.95;;;;;;;10.34;87.55;102449.72;10333869;28;20066;-76
2023/05/03 20:29:27;;;;;;;6.70;6.03;;;;;;;10.31;86.89;102449.19;10334220;28;20038;-77
2023/05/03 20:34:28;;;;;;;6.63;5.82;;;;;;;10.27;88.83;102450.50;10334414;28;20608;-77
2023/05/03 20:39:28;;;;;;;8.10;6.13;;;;;;;10.29;90.68;102451.19;10334100;28;20046;-77
2023/05/03 20:44:29;;;;;;;20.50;5.78;;;;;;;10.31;90.13;102443.78;10317556;28;20042;-76
2023/05/03 20:49:30;;;;;;;6.57;6.05;;;;;;;10.34;89.32;102443.44;10336697;28;20035;-76
2023/05/03 20:54:30;;;;;;;6.32;5.53;;;;;;;10.39;88.58;102433.81;10351562;28;20045;-75
2023/05/03 20:59:30;;;;;;;6.25;5.65;;;;;;;10.36;87.26;102427.88;10348763;28;20105;-76
2023/05/03 21:04:31;;;;;;;7.25;6.07;;;;;;;10.43;85.48;102435.22;10340757;28;20037;-75
2023/05/03 21:09:32;;;;;;;12.10;5.78;;;;;;;10.47;84.02;102442.03;10317532;28;20065;-75
2023/05/03 21:14:32;;;;;;;11.73;6.20;;;;;;;10.48;83.57;102430.16;10316762;28;20129;-74
2023/05/03 21:19:33;;;;;;;6.25;5.35;;;;;;;10.44;83.79;102428.78;10332638;28;20409;-76
2023/05/03 21:24:34;;;;;;;9.63;5.35;;;;;;;10.40;84.58;102426.53;10333517;28;20042;-73
2023/05/03 21:29:34;;;;;;;7.70;6.65;;;;;;;10.39;83.23;102414.03;10332527;28;20038;-74
2023/05/03 21:34:35;;;;;;;13.85;7.05;;;;;;;10.34;84.08;102428.06;10338894;28;20451;-75
2023/05/03 21:39:35;;;;;;;8.43;5.95;;;;;;;10.23;85.93;102423.69;10324657;28;20069;-76
2023/05/03 21:44:35;;;;;;;8.65;6.50;;;;;;;10.15;85.59;102411.97;10340720;28;20034;-76
2023/05/03 21:49:36;;;;;;;6.93;4.97;;;;;;;10.15;85.47;102420.09;10340932;28;20493;-74
2023/05/03 21:54:36;;;;;;;8.52;5.57;;;;;;;10.07;85.73;102409.19;10324751;28;20042;-77
2023/05/03 21:59:36;;;;;;;4.90;4.47;;;;;;;9.99;nan;102410.84;10323491;28;20070;-75
2023/05/03 22:04:37;;;;;;;12.98;4.35;;;;;;;9.97;86.02;102401.16;10340316;28;20046;-77
2023/05/03 22:09:37;;;;;;;30.27;5.47;;;;;;;9.95;86.16;102400.47;10324575;28;20104;-74
2023/05/03 22:14:38;;;;;;;7.60;4.90;;;;;;;9.84;87.19;102398.03;10326590;28;20038;-75
2023/05/03 22:19:38;;;;;;;6.80;5.07;;;;;;;9.75;88.55;102388.97;10323942;28;20031;-76
2023/05/03 22:24:40;;;;;;;11.25;5.43;;;;;;;9.70;89.41;102386.75;10339884;28;20034;-73
2023/05/03 22:29:41;;;;;;;5.53;4.68;;;;;;;9.61;90.58;102398.50;10342897;28;20042;-76
2023/05/03 22:34:43;;;;;;;5.03;4.50;;;;;;;9.53;91.49;102395.69;10321702;28;20412;-75
2023/05/03 22:39:43;;;;;;;4.22;3.85;;;;;;;9.46;92.04;102384.66;10340765;28;20039;-75
2023/05/03 22:44:44;;;;;;;4.85;4.45;;;;;;;9.38;93.75;102384.59;10337405;28;20390;-76
2023/05/03 22:49:44;;;;;;;4.80;4.32;;;;;;;9.27;95.78;102368.56;10337967;28;20486;-76
2023/05/03 22:54:45;;;;;;;9.13;6.70;;;;;;;9.19;96.30;102371.16;10337707;28;20045;-76
2023/05/03 22:59:45;;;;;;;7.18;5.47;;;;;;;9.08;97.45;102364.97;10336893;28;20077;-77
2023/05/03 23:04:46;;;;;;;10.48;5.45;;;;;;;9.12;96.71;102359.28;10337551;28;20030;-75